Pasqua, Canada
Current Conditions -  °F | °C
As of 8:00 AM on Saturday 25 Oct 2014 (Local Time) from CYQR Reporting Station
Scattered Clouds Scattered Clouds  
Wind Chill: 27°   Ceiling: Unl
Heat Index: 27°   Visibility: 15mi
Dew Point: 25°   Wind: 2mph
Humidity: 93%   Direction: 180°S
Pressure: 30.07"   Gusts: NA
Location:  50.37°N, 105.38°W
Report Text: CYQR 251400Z 18002KT 15SM SCT250 M03/M04 A3007 RMK CI3 SLP212
Loading
Personal Weather Stations






























Interactive Weather Map
Tropical Storm Tracking
New forecast layout! Learn more

10-Day Weather Forecast

Advertisements
Track Severe Weather on mobile